Time;durP1;ratioP1;P1;durP2;ratioP2;P2;SDS_P1;SDS_P2;PMS_P1;PMS_P2;Temp;Humidity;BMP_temperature;BMP_pressure;BME280_temperature;BME280_humidity;BME280_pressure;Samples;Min_cycle;Max_cycle;Signal;HPM_P1;HPM_P2
2022/08/17 00:04:18;;;;;;;5.90;4.65;;;21.50;91.20;;;20.32;71.26;99470.78;10267926;28;96672;-87
2022/08/17 00:09:21;;;;;;;5.60;4.68;;;21.60;91.30;;;20.37;71.54;99472.72;10254453;28;96666;-87
2022/08/17 00:14:24;;;;;;;6.20;4.97;;;21.60;91.40;;;20.36;71.37;99471.91;10272767;28;97023;-87
2022/08/17 00:19:27;;;;;;;7.13;4.90;;;21.60;91.60;;;20.35;71.59;99478.38;10268795;28;97448;-87
2022/08/17 00:24:31;;;;;;;5.05;4.55;;;21.60;91.70;;;20.29;71.88;99482.09;10266310;28;98855;-86
2022/08/17 00:29:33;;;;;;;6.18;5.20;;;21.60;91.90;;;20.26;72.34;99483.38;10258492;28;98259;-87
2022/08/17 00:34:37;;;;;;;5.50;4.95;;;21.60;92.00;;;20.18;72.14;99483.00;10252423;28;97926;-87
2022/08/17 00:39:40;;;;;;;6.05;5.35;;;21.50;92.10;;;20.14;72.54;99484.53;10256258;28;98153;-87
2022/08/17 00:44:44;;;;;;;5.53;4.97;;;21.50;92.20;;;20.02;72.50;99488.16;10275660;28;97480;-87
2022/08/17 00:49:47;;;;;;;6.68;5.03;;;21.30;92.30;;;19.89;72.98;99485.00;10230686;28;96670;-87
2022/08/17 00:54:54;;;;;;;7.47;5.60;;;21.20;92.70;;;19.80;73.20;99494.56;10292712;28;96498;-87
2022/08/17 01:00:14;;;;;;;5.65;4.93;;;21.10;93.00;;;19.68;73.43;99497.34;10279293;28;98571;-87
2022/08/17 01:05:26;;;;;;;6.50;5.20;;;21.00;93.10;;;19.59;73.70;99496.09;10278386;28;97208;-87
2022/08/17 01:10:40;;;;;;;5.45;4.95;;;20.90;93.30;;;19.45;74.18;99498.25;10265368;28;97500;-87
2022/08/17 01:16:16;;;;;;;8.07;5.10;;;20.70;93.80;;;19.35;74.51;99495.38;10278572;28;98000;-87
2022/08/17 01:21:43;;;;;;;7.68;5.88;;;20.70;94.10;;;19.25;75.67;99496.00;10283672;28;96871;-86
2022/08/17 01:26:47;;;;;;;7.97;5.53;;;20.60;94.70;;;19.29;76.37;99501.72;10299129;28;96989;-86
2022/08/17 01:31:58;;;;;;;6.78;5.55;;;20.50;95.20;;;19.32;76.80;99507.47;10250993;28;97438;-87
2022/08/17 01:37:02;;;;;;;6.00;5.40;;;20.60;95.60;;;19.35;77.07;99506.16;10289669;28;96949;-87
2022/08/17 01:42:35;;;;;;;5.85;5.28;;;20.60;96.00;;;19.30;77.70;99506.88;10291648;28;97334;-87
2022/08/17 01:47:38;;;;;;;8.82;6.40;;;20.60;96.30;;;19.26;77.75;99505.72;10248906;28;99481;-87
2022/08/17 01:52:52;;;;;;;7.35;5.38;;;20.60;96.60;;;19.20;77.77;99495.94;10271529;28;96798;-87
2022/08/17 01:57:55;;;;;;;5.60;5.10;;;20.50;96.80;;;19.22;78.04;99499.19;10271145;28;97275;-87
2022/08/17 02:03:00;;;;;;;8.10;5.25;;;20.40;97.10;;;19.19;78.32;99502.34;10292692;28;96764;-87
2022/08/17 02:08:03;;;;;;;7.30;5.65;;;20.40;97.40;;;19.15;78.42;99504.72;10275272;28;96582;-87
2022/08/17 02:13:07;;;;;;;6.38;5.75;;;20.40;97.70;;;19.08;78.28;99500.53;10275186;28;96698;-87
2022/08/17 02:18:12;;;;;;;6.38;5.78;;;20.40;97.70;;;19.01;78.58;99491.75;10258784;28;97231;-86
2022/08/17 02:23:15;;;;;;;6.55;5.88;;;20.30;97.90;;;19.03;78.72;99495.06;10254162;28;98847;-87
2022/08/17 02:28:18;;;;;;;6.85;6.03;;;20.30;98.00;;;19.03;78.71;99489.66;10286778;28;99046;-86
2022/08/17 02:33:21;;;;;;;6.00;5.40;;;20.30;98.00;;;18.97;78.29;99475.28;10270333;28;98408;-87
2022/08/17 02:38:43;;;;;;;7.70;6.00;;;20.30;97.90;;;18.96;77.75;99479.06;10288188;28;98136;-86
2022/08/17 02:43:46;;;;;;;6.30;5.50;;;20.30;97.80;;;18.94;77.84;99491.91;10286421;28;97604;-86
2022/08/17 02:48:50;;;;;;;5.97;5.15;;;20.30;97.80;;;18.93;78.03;99501.88;10250900;28;97638;-86
2022/08/17 02:53:53;;;;;;;8.43;6.32;;;20.30;97.90;;;18.88;78.18;99499.06;10282470;28;96677;-87
2022/08/17 02:59:15;;;;;;;6.75;6.00;;;20.20;98.20;;;18.81;77.74;99502.97;10285899;28;97406;-87
2022/08/17 03:04:18;;;;;;;6.15;5.47;;;20.10;98.10;;;18.73;77.94;99497.97;10279442;28;97235;-87
2022/08/17 03:09:21;;;;;;;9.65;6.40;;;20.00;98.10;;;18.63;78.07;99499.34;10290312;28;98257;-87
2022/08/17 03:14:24;;;;;;;12.82;7.07;;;20.00;98.30;;;18.53;78.36;99498.31;10268219;28;98549;-87
2022/08/17 03:19:28;;;;;;;10.10;7.90;;;19.90;98.70;;;18.52;78.12;99502.88;10272581;28;98307;-87
2022/08/17 03:24:30;;;;;;;8.65;6.95;;;19.80;98.50;;;18.51;77.93;99503.94;10295438;28;97626;-87
2022/08/17 03:29:33;;;;;;;7.85;6.95;;;19.80;98.40;;;18.52;77.75;99510.13;10264344;28;98243;-87
2022/08/17 03:34:36;;;;;;;7.88;6.97;;;19.80;98.50;;;18.49;77.91;99513.31;10284832;28;98860;-88
2022/08/17 03:39:39;;;;;;;7.72;6.93;;;19.80;98.40;;;18.42;78.06;99513.44;10270098;28;96722;-86
2022/08/17 03:44:47;;;;;;;7.30;6.57;;;19.80;98.50;;;18.38;77.93;99521.13;10281669;28;97444;-86
2022/08/17 04:00:44;;;;;;;9.68;6.40;;;19.70;98.90;;;18.33;79.06;99547.09;10281742;28;98393;-86
2022/08/17 04:05:47;;;;;;;10.45;6.75;;;19.70;99.00;;;18.32;78.78;99537.41;10268907;28;96604;-86
2022/08/17 04:10:49;;;;;;;7.75;6.95;;;19.70;98.90;;;18.31;78.90;99538.47;10272776;28;97606;-85
2022/08/17 04:15:53;;;;;;;10.05;6.50;;;19.70;98.90;;;18.33;78.76;99544.41;10270702;28;97511;-86
2022/08/17 04:20:56;;;;;;;7.20;6.50;;;19.70;99.00;;;18.37;78.62;99543.72;10243475;28;96814;-85
2022/08/17 04:26:00;;;;;;;7.28;6.57;;;19.70;99.00;;;18.44;78.92;99552.47;10271308;28;98334;-85
2022/08/17 04:31:04;;;;;;;8.32;6.22;;;19.80;99.20;;;18.51;78.72;99544.28;10285068;28;98164;-85
2022/08/17 04:36:09;;;;;;;8.82;6.93;;;19.80;99.20;;;18.57;78.42;99553.28;10275334;28;98392;-84
2022/08/17 04:46:35;;;;;;;7.25;6.55;;;19.90;99.10;;;18.79;78.09;99559.72;10276219;28;99664;-85
2022/08/17 04:51:45;;;;;;;7.78;6.32;;;20.00;99.10;;;18.90;78.34;99561.59;10275979;28;98171;-85
2022/08/17 04:56:58;;;;;;;9.03;6.83;;;20.20;98.90;;;19.04;77.96;99555.91;10287175;28;98564;-85
2022/08/17 05:02:01;;;;;;;9.20;6.30;;;20.30;98.80;;;19.18;77.66;99555.41;10282464;28;97740;-84
2022/08/17 05:07:04;;;;;;;9.57;6.13;;;20.50;98.80;;;19.39;77.05;99561.19;10261238;28;98621;-84
2022/08/17 05:12:07;;;;;;;6.88;6.20;;;20.70;98.40;;;19.58;76.29;99559.94;10280977;28;99093;-84
2022/08/17 05:17:10;;;;;;;7.60;5.55;;;20.80;98.00;;;19.80;75.49;99561.97;10296677;28;98462;-83
2022/08/17 05:22:13;;;;;;;7.22;5.53;;;21.00;97.70;;;20.03;75.25;99562.63;10287225;28;98567;-84
2022/08/17 05:27:16;;;;;;;6.25;5.65;;;21.30;97.60;;;20.29;75.13;99563.03;10293916;28;97380;-84
2022/08/17 05:32:22;;;;;;;7.60;6.20;;;21.50;97.50;;;20.53;75.03;99556.38;10286686;28;97703;-84
2022/08/17 05:37:41;;;;;;;7.95;6.57;;;21.70;97.30;;;20.84;74.08;99564.91;10293890;28;96864;-84
2022/08/17 05:42:44;;;;;;;15.00;7.25;;;22.00;96.80;;;21.05;73.15;99564.09;10254980;28;98441;-85
2022/08/17 05:47:47;;;;;;;9.75;7.32;;;22.30;96.40;;;21.21;72.83;99562.38;10271296;28;98375;-84
2022/08/17 05:53:06;;;;;;;10.13;7.10;;;22.50;96.20;;;21.39;73.43;99582.88;10290109;28;97528;-84
2022/08/17 05:59:12;;;;;;;7.53;6.57;;;22.60;96.40;;;21.43;73.41;99575.91;10285773;28;97263;-84
2022/08/17 06:04:56;;;;;;;11.07;6.90;;;22.80;96.20;;;21.49;73.65;99582.19;10105670;28;96708;-83
2022/08/17 06:10:34;;;;;;;12.43;7.05;;;22.80;96.20;;;21.60;73.68;99584.72;10284628;28;97395;-84
2022/08/17 06:16:14;;;;;;;12.70;6.78;;;22.90;96.40;;;21.71;72.99;99584.81;10280127;28;98582;-84
2022/08/17 06:21:47;;;;;;;7.18;6.03;;;23.00;96.00;;;21.80;72.61;99591.41;10281888;28;96757;-84
2022/08/17 06:26:53;;;;;;;8.48;6.20;;;23.10;95.70;;;21.89;71.64;99589.84;10256353;28;97360;-84
2022/08/17 06:31:56;;;;;;;8.90;6.60;;;23.10;95.30;;;22.06;71.52;99589.72;10269372;28;97005;-84
2022/08/17 06:37:31;;;;;;;10.90;6.05;;;23.30;95.20;;;22.28;71.21;99584.25;10262842;28;97576;-83
2022/08/17 06:42:43;;;;;;;6.35;5.68;;;23.50;95.00;;;22.51;70.60;99581.19;10262591;28;96877;-84
2022/08/17 06:48:52;;;;;;;8.98;5.57;;;23.70;94.70;;;22.83;69.87;99581.09;10270824;28;96675;-84
2022/08/17 06:54:17;;;;;;;6.15;5.55;;;24.00;94.30;;;23.18;68.90;99574.22;10270142;28;97229;-84
2022/08/17 06:59:32;;;;;;;6.15;5.40;;;24.40;93.80;;;23.48;67.78;99577.00;10270092;28;99056;-84
2022/08/17 07:04:57;;;;;;;5.97;5.15;;;24.70;93.00;;;23.80;66.35;99572.47;10272506;28;97375;-84
2022/08/17 07:10:01;;;;;;;7.97;5.22;;;25.00;92.20;;;24.14;64.71;99567.34;10257107;28;97643;-84
2022/08/17 07:15:19;;;;;;;8.82;6.80;;;25.30;91.40;;;24.51;63.22;99575.19;10250244;28;98687;-84
2022/08/17 07:20:21;;;;;;;9.48;5.88;;;25.70;90.80;;;24.79;62.07;99574.59;10261954;28;97010;-83
2022/08/17 07:25:25;;;;;;;10.35;5.78;;;26.00;90.00;;;25.07;60.52;99570.44;10272424;28;96879;-83
2022/08/17 07:30:43;;;;;;;5.82;4.88;;;26.20;88.40;;;25.33;57.80;99562.16;10275090;28;98163;-83
2022/08/17 07:35:49;;;;;;;7.20;5.28;;;26.50;85.60;;;25.56;57.03;99566.91;10257380;28;99354;-83
2022/08/17 07:41:01;;;;;;;7.13;5.10;;;26.70;83.40;;;25.79;55.90;99567.31;10262558;28;98773;-84
2022/08/17 07:52:31;;;;;;;5.65;4.68;;;27.20;80.10;;;26.26;53.65;99563.94;10284843;28;96832;-83
2022/08/17 07:57:56;;;;;;;;;;;27.40;78.80;;;26.53;51.45;99559.91;10278671;28;98455;-84
2022/08/17 08:03:12;;;;;;;5.10;4.00;;;27.70;77.20;;;26.77;51.80;99563.44;10243637;28;97329;-85
2022/08/17 08:08:42;;;;;;;4.47;4.07;;;27.90;76.20;;;27.03;49.87;99565.84;10237850;28;96700;-83
2022/08/17 08:13:45;;;;;;;4.25;3.83;;;28.20;74.00;;;27.28;49.38;99556.56;10270430;28;97177;-83
2022/08/17 08:18:52;;;;;;;6.07;4.10;;;28.50;72.80;;;27.58;48.40;99555.31;10263679;28;98267;-83
2022/08/17 08:24:25;;;;;;;4.68;4.28;;;28.80;71.20;;;27.85;46.53;99558.19;10262552;28;97081;-83
2022/08/17 08:30:06;;;;;;;7.18;4.32;;;29.00;69.60;;;28.06;45.83;99564.13;10280747;28;98416;-85
2022/08/17 08:35:37;;;;;;;6.05;4.13;;;29.30;67.90;;;28.28;45.38;99555.28;10252007;28;97179;-84
2022/08/17 08:41:20;;;;;;;5.95;4.30;;;29.40;66.90;;;28.50;45.19;99558.19;10275438;28;97142;-84
2022/08/17 08:46:40;;;;;;;5.30;4.07;;;29.70;66.10;;;28.73;44.83;99552.84;10268546;28;98235;-84
2022/08/17 08:51:54;;;;;;;4.95;4.07;;;29.90;65.90;;;28.96;43.86;99561.97;10281242;28;97051;-82
2022/08/17 08:57:23;;;;;;;5.13;4.13;;;30.10;64.90;;;29.19;43.13;99549.19;10264538;28;98196;-83
2022/08/17 09:03:38;;;;;;;6.47;4.32;;;30.30;63.80;;;29.49;42.68;99543.00;10272019;28;96848;-84
2022/08/17 09:09:33;;;;;;;4.63;4.00;;;30.60;63.30;;;29.69;41.86;99540.94;10274858;28;97291;-84
2022/08/17 09:15:04;;;;;;;4.75;4.22;;;30.90;62.00;;;29.91;41.71;99532.72;10263270;28;98380;-84
2022/08/17 09:20:25;;;;;;;5.25;3.90;;;31.10;62.30;;;30.14;41.21;99533.56;10276423;28;97483;-83
2022/08/17 09:25:44;;;;;;;6.93;4.10;;;31.30;60.90;;;30.38;40.59;99542.22;10281051;28;98253;-83
2022/08/17 09:30:54;;;;;;;5.55;4.40;;;31.60;60.00;;;30.60;39.67;99530.38;10274799;28;97007;-83
2022/08/17 09:36:42;;;;;;;8.52;4.72;;;31.80;59.40;;;30.82;39.02;99523.22;10253782;28;96938;-83
2022/08/17 09:41:58;;;;;;;4.93;4.10;;;32.00;58.70;;;31.02;37.93;99522.63;10259383;28;97892;-84
2022/08/17 09:47:44;;;;;;;5.32;4.50;;;32.20;57.40;;;31.05;37.03;99511.00;10266430;28;98970;-83
2022/08/17 09:52:53;;;;;;;4.53;4.13;;;32.40;56.00;;;31.17;37.26;99513.91;10277818;28;96603;-84
2022/08/17 09:58:55;;;;;;;6.03;4.28;;;32.50;55.60;;;31.24;35.46;99497.00;10264505;28;96710;-84
2022/08/17 10:04:18;;;;;;;4.80;3.90;;;32.50;54.20;;;31.45;35.56;99499.94;10174842;28;97227;-84
2022/08/17 10:09:47;;;;;;;4.78;4.10;;;32.70;53.70;;;31.72;35.05;99501.50;10302887;28;97306;-84
2022/08/17 10:15:32;;;;;;;4.90;3.83;;;32.90;53.50;;;32.02;33.75;99504.38;10290265;28;97596;-85
2022/08/17 10:26:36;;;;;;;5.70;3.58;;;33.50;52.70;;;32.30;33.48;99504.78;10286301;28;98755;-84
2022/08/17 10:32:04;;;;;;;4.25;3.80;;;33.50;51.50;;;32.81;32.42;99495.53;10264982;28;98951;-84
2022/08/17 10:37:23;;;;;;;4.65;3.92;;;33.90;50.70;;;33.16;30.48;99487.03;10276003;28;98750;-85
2022/08/17 10:42:54;;;;;;;4.03;3.50;;;34.20;48.60;;;33.40;29.46;99500.16;10268046;28;97614;-84
2022/08/17 10:48:19;;;;;;;4.30;3.38;;;34.30;46.30;;;33.54;29.02;99492.44;10282928;28;98297;-84
2022/08/17 10:53:31;;;;;;;3.80;3.40;;;34.50;47.00;;;33.68;28.67;99501.22;10264893;28;96749;-84
2022/08/17 10:58:58;;;;;;;3.55;3.25;;;34.60;46.70;;;33.86;28.06;99492.78;10293439;28;96832;-84
2022/08/17 11:04:48;;;;;;;4.60;3.30;;;34.80;46.10;;;34.06;27.94;99489.16;10263211;28;98214;-84
2022/08/17 11:10:19;;;;;;;3.58;2.88;;;35.00;45.80;;;34.26;27.09;99490.25;10253771;28;98116;-84
2022/08/17 11:15:30;;;;;;;5.55;3.00;;;35.20;44.90;;;34.39;26.08;99480.03;10292404;28;97180;-84
2022/08/17 11:21:38;;;;;;;3.90;2.70;;;35.40;43.80;;;34.55;25.99;99489.25;10291251;28;97479;-85
2022/08/17 11:26:57;;;;;;;4.22;2.80;;;35.50;43.20;;;34.52;24.95;99481.66;10244974;28;97539;-85
2022/08/17 11:32:25;;;;;;;3.55;2.70;;;35.60;42.80;;;34.45;25.24;99471.22;10267793;28;98419;-84
2022/08/17 11:38:03;;;;;;;3.10;2.50;;;35.60;42.30;;;34.56;24.66;99460.53;10275306;28;96729;-86
2022/08/17 11:43:27;;;;;;;4.18;2.65;;;35.60;42.30;;;34.80;25.24;99459.69;10261305;28;97417;-84
2022/08/17 11:54:16;;;;;;;2.95;2.20;;;35.90;41.40;;;35.09;24.31;99459.44;10282252;28;98462;-85
2022/08/17 11:59:38;;;;;;;4.82;2.70;;;36.00;41.30;;;35.32;24.19;99462.44;10265671;28;97694;-85
2022/08/17 12:05:15;;;;;;;2.80;2.40;;;36.30;41.30;;;35.56;22.23;99455.22;10289441;28;96823;-85
2022/08/17 12:10:30;;;;;;;2.60;2.30;;;36.80;40.10;;;35.82;22.28;99455.56;10292839;28;96614;-83
2022/08/17 12:15:48;;;;;;;3.10;1.90;;;37.30;39.10;;;36.18;22.69;99449.00;10272251;28;97196;-83
2022/08/17 12:21:52;;;;;;;2.40;2.17;;;37.80;39.20;;;36.60;21.65;99434.63;10252089;28;98301;-82
2022/08/17 12:27:00;;;;;;;3.70;2.10;;;38.30;38.90;;;36.92;21.18;99440.09;10307525;28;96802;-84
2022/08/17 12:32:05;;;;;;;2.92;2.40;;;38.90;37.60;;;37.11;20.58;99447.59;10260321;28;98186;-84
2022/08/17 12:37:34;;;;;;;4.67;2.43;;;39.10;37.50;;;37.20;20.93;99437.91;10268825;28;99388;-84
2022/08/17 12:42:38;;;;;;;;;;;39.00;37.10;;;37.39;21.26;99433.56;10270701;28;98650;-81
2022/08/17 12:47:41;;;;;;;3.20;2.55;;;39.00;38.30;;;37.38;21.23;99435.53;10267641;28;97241;-82
2022/08/17 12:52:44;;;;;;;4.38;2.60;;;39.20;38.10;;;37.66;20.99;99426.13;10273187;28;97349;-86
2022/08/17 12:57:58;;;;;;;9.20;2.80;;;39.30;37.90;;;37.88;20.85;99419.84;10277429;28;96552;-82
2022/08/17 13:03:25;;;;;;;;;;;39.40;38.00;;;38.08;20.51;99415.00;10259914;28;98219;-82
2022/08/17 13:08:46;;;;;;;1.98;1.65;;;39.40;37.60;;;38.10;20.44;99420.22;10264456;28;96961;-81
2022/08/17 13:13:55;;;;;;;5.93;2.80;;;39.20;37.50;;;37.95;20.73;99414.41;10265926;28;96966;-81
2022/08/17 13:19:20;;;;;;;3.13;2.28;;;38.90;37.70;;;37.74;20.45;99425.13;10284065;28;96811;-81
2022/08/17 13:25:02;;;;;;;2.63;2.30;;;38.60;37.80;;;37.49;20.21;99417.16;10294569;28;97633;-81
2022/08/17 13:30:11;;;;;;;2.90;2.60;;;38.30;37.60;;;37.25;20.77;99422.97;10284018;28;97247;-83
2022/08/17 13:35:39;;;;;;;3.28;2.50;;;38.20;37.80;;;36.97;20.83;99420.41;10263204;28;97410;-81
2022/08/17 13:40:51;;;;;;;4.55;2.50;;;37.90;37.90;;;36.77;21.16;99410.44;10285343;28;97473;-82
2022/08/17 13:46:09;;;;;;;2.92;2.20;;;37.60;38.00;;;36.74;21.09;99420.28;10288528;28;96932;-83
2022/08/17 13:51:22;;;;;;;2.95;2.33;;;37.60;38.20;;;36.72;20.90;99411.56;10259239;28;96672;-82
2022/08/17 13:56:34;;;;;;;4.30;2.40;;;37.50;37.90;;;36.61;20.95;99407.75;10302465;28;96829;-82
2022/08/17 14:01:45;;;;;;;3.97;2.28;;;37.40;37.80;;;36.68;21.12;99411.47;10274077;28;97109;-82
2022/08/17 14:07:07;;;;;;;3.92;2.40;;;37.50;37.90;;;36.63;21.16;99408.97;10259650;28;96716;-83
2022/08/17 14:12:14;;;;;;;5.10;2.10;;;37.50;37.70;;;36.65;20.92;99411.41;10252603;28;97463;-83
2022/08/17 14:17:18;;;;;;;4.70;2.05;;;37.50;37.30;;;36.81;21.18;99414.91;10257021;28;97526;-82
2022/08/17 14:22:29;;;;;;;2.25;1.90;;;37.60;37.80;;;36.86;20.77;99402.75;10273561;28;98629;-82
2022/08/17 14:27:32;;;;;;;5.00;2.33;;;37.70;37.80;;;36.89;20.47;99413.94;10274354;28;98529;-82
2022/08/17 14:32:56;;;;;;;2.65;2.03;;;37.70;37.70;;;36.95;20.85;99401.41;10277709;28;97008;-81
2022/08/17 14:38:02;;;;;;;2.72;2.00;;;37.70;37.70;;;37.08;20.41;99404.03;10254074;28;97074;-82
2022/08/17 14:43:05;;;;;;;2.85;2.35;;;37.90;37.20;;;37.07;20.00;99402.44;10285661;28;98646;-82
2022/08/17 14:48:09;;;;;;;2.17;1.98;;;37.90;36.70;;;37.11;20.91;99404.09;10288100;28;98362;-81
2022/08/17 14:53:15;;;;;;;3.80;2.03;;;37.90;37.50;;;37.09;20.16;99411.16;10276011;28;96531;-82
2022/08/17 14:58:18;;;;;;;4.00;1.90;;;37.90;37.20;;;37.05;20.43;99404.75;10285609;28;97301;-81
2022/08/17 15:03:22;;;;;;;2.38;2.03;;;37.80;37.10;;;36.97;20.28;99403.81;10271712;28;96718;-81
2022/08/17 15:08:25;;;;;;;3.65;2.22;;;37.70;37.00;;;36.87;20.48;99410.72;10285434;28;96582;-81
2022/08/17 15:13:29;;;;;;;3.15;1.85;;;37.60;37.00;;;36.94;20.71;99404.53;10279334;28;96731;-83
2022/08/17 15:18:32;;;;;;;3.85;1.95;;;37.60;37.40;;;37.05;20.37;99404.75;10273607;28;96928;-81
2022/08/17 15:23:36;;;;;;;6.63;2.35;;;37.70;37.40;;;37.16;20.31;99403.00;10255520;28;96580;-81
2022/08/17 15:28:39;;;;;;;12.30;2.35;;;37.90;37.30;;;37.21;19.74;99411.81;10289140;28;96583;-81
2022/08/17 15:33:42;;;;;;;2.35;1.98;;;37.90;37.10;;;37.29;19.96;99414.72;10261525;28;97564;-81
2022/08/17 15:38:45;;;;;;;3.00;1.80;;;38.00;36.90;;;37.22;19.95;99407.06;10264317;28;96496;-82
2022/08/17 15:43:49;;;;;;;3.33;2.10;;;37.90;36.90;;;37.09;19.92;99414.75;10273084;28;96898;-82
2022/08/17 15:48:57;;;;;;;3.25;2.08;;;37.70;36.60;;;36.92;19.38;99413.19;10285913;28;97495;-83
2022/08/17 15:54:10;;;;;;;2.58;1.92;;;37.50;36.50;;;36.65;19.72;99411.41;10268977;28;97728;-82
2022/08/17 15:59:24;;;;;;;2.03;1.83;;;37.20;36.60;;;36.43;20.49;99410.91;10255728;28;98012;-82
2022/08/17 16:04:27;;;;;;;3.75;1.92;;;37.00;37.00;;;36.23;20.35;99412.00;10266577;28;98397;-81
2022/08/17 16:09:33;;;;;;;2.20;1.70;;;36.90;36.90;;;36.17;20.50;99410.66;10274589;28;98914;-81
2022/08/17 16:14:36;;;;;;;5.45;1.90;;;36.80;37.10;;;36.13;20.62;99412.53;10271402;28;97727;-82
2022/08/17 16:19:40;;;;;;;2.70;1.83;;;36.90;37.30;;;35.87;20.82;99411.06;10277623;28;97429;-82
2022/08/17 16:24:45;;;;;;;2.70;2.08;;;36.60;37.20;;;35.51;21.07;99422.34;10271195;28;97303;-81
2022/08/17 16:29:59;;;;;;;5.80;1.95;;;36.30;37.10;;;35.10;21.08;99410.53;10253596;28;98382;-82
2022/08/17 16:35:10;;;;;;;3.72;2.10;;;35.80;37.30;;;34.76;21.32;99412.66;10284392;28;97616;-82
2022/08/17 16:40:16;;;;;;;2.05;1.83;;;35.60;37.60;;;34.55;21.79;99409.25;10271427;28;96825;-82
2022/08/17 16:45:27;;;;;;;2.95;1.75;;;35.30;37.90;;;34.28;21.95;99408.78;10263799;28;98898;-82
2022/08/17 16:50:31;;;;;;;4.70;1.80;;;35.10;38.00;;;34.08;22.46;99417.97;10264561;28;97235;-82
2022/08/17 16:55:34;;;;;;;3.65;1.90;;;34.90;38.20;;;33.82;22.51;99419.03;10263897;28;98284;-82
2022/08/17 17:00:38;;;;;;;3.40;1.80;;;34.60;38.30;;;33.53;23.09;99414.53;10262677;28;98439;-83
2022/08/17 17:06:13;;;;;;;4.72;2.10;;;34.30;38.60;;;33.18;23.32;99430.53;10247051;28;97534;-82
2022/08/17 17:11:32;;;;;;;4.03;1.80;;;34.00;38.90;;;32.81;23.08;99424.00;10286133;28;97082;-83
2022/08/17 17:16:44;;;;;;;3.88;2.00;;;33.60;38.50;;;32.52;23.41;99430.31;10268352;28;96667;-82
2022/08/17 17:22:12;;;;;;;7.55;2.08;;;33.40;38.90;;;32.22;24.23;99432.22;10279513;28;96794;-83
2022/08/17 17:27:36;;;;;;;4.67;1.90;;;33.10;39.40;;;31.94;24.50;99435.41;10285790;28;96638;-83
2022/08/17 17:33:01;;;;;;;5.97;2.05;;;32.80;39.70;;;31.64;24.95;99439.97;10276125;28;98564;-82
2022/08/17 17:38:14;;;;;;;7.88;2.05;;;32.60;39.90;;;31.40;25.51;99446.00;10285978;28;98376;-83
2022/08/17 17:43:24;;;;;;;5.00;2.03;;;32.30;40.20;;;31.15;25.96;99455.81;10288603;28;96727;-82
2022/08/17 17:48:42;;;;;;;6.45;1.90;;;32.10;40.60;;;30.88;26.46;99459.66;10270113;28;98796;-82
2022/08/17 17:54:06;;;;;;;4.03;2.00;;;31.90;40.90;;;30.63;26.51;99455.72;10277061;28;96791;-83
2022/08/17 17:59:34;;;;;;;3.60;2.30;;;31.70;41.40;;;30.34;27.02;99464.47;10277390;28;96575;-82
2022/08/17 18:04:58;;;;;;;2.60;1.63;;;31.40;41.50;;;30.04;27.22;99452.41;10268678;28;97742;-82
2022/08/17 18:10:29;;;;;;;4.15;2.00;;;31.20;41.90;;;29.78;28.11;99467.91;10285266;28;98005;-83
2022/08/17 18:15:49;;;;;;;2.85;1.80;;;30.90;42.30;;;29.55;28.74;99467.09;10284639;28;98369;-83
2022/08/17 18:21:05;;;;;;;4.72;2.33;;;30.60;42.70;;;29.36;28.99;99477.38;10262679;28;96846;-82
2022/08/17 18:26:08;;;;;;;2.83;2.28;;;30.40;43.00;;;29.20;29.41;99479.66;10286706;28;98370;-82
2022/08/17 18:31:20;;;;;;;4.20;2.45;;;30.20;43.40;;;29.09;29.59;99481.00;10265643;28;96721;-82
2022/08/17 18:36:38;;;;;;;6.55;2.13;;;30.10;43.60;;;28.96;29.73;99497.13;10248452;28;96763;-83
2022/08/17 18:41:53;;;;;;;3.05;2.20;;;30.00;44.00;;;28.83;30.45;99500.69;10286357;28;97553;-83
2022/08/17 18:47:27;;;;;;;5.45;2.47;;;29.80;44.20;;;28.69;31.02;99499.88;10284708;28;97865;-83
2022/08/17 18:52:32;;;;;;;3.38;2.30;;;29.70;44.80;;;28.59;30.80;99502.81;10260248;28;96650;-83
2022/08/17 18:57:49;;;;;;;2.63;2.15;;;29.60;44.90;;;28.50;31.26;99502.72;10288146;28;96680;-82
2022/08/17 19:02:58;;;;;;;2.60;2.10;;;29.50;45.20;;;28.45;31.28;99497.34;10248732;28;97142;-82
2022/08/17 19:08:23;;;;;;;3.55;2.10;;;29.40;45.30;;;28.43;31.64;99500.41;10282262;28;96926;-82
2022/08/17 19:13:30;;;;;;;2.30;1.83;;;29.40;45.50;;;28.43;31.39;99505.03;10278015;28;98400;-82
2022/08/17 19:18:54;;;;;;;2.67;2.00;;;29.40;45.60;;;28.39;31.54;99499.38;10256646;28;99098;-82
2022/08/17 19:24:10;;;;;;;4.45;2.40;;;29.30;45.60;;;28.37;31.83;99508.97;10266905;28;97528;-83
2022/08/17 19:29:58;;;;;;;3.08;2.13;;;29.30;45.60;;;28.27;32.38;99518.16;10261484;28;96746;-82
2022/08/17 19:35:09;;;;;;;4.15;2.30;;;29.30;46.00;;;28.08;32.32;99515.50;10273965;28;98818;-82
2022/08/17 19:41:00;;;;;;;3.63;2.10;;;29.10;46.30;;;27.82;32.96;99526.03;10240557;28;97204;-83
2022/08/17 19:46:24;;;;;;;4.60;2.50;;;28.90;46.80;;;27.61;33.41;99521.97;10256134;28;96762;-83
2022/08/17 19:51:55;;;;;;;3.08;2.20;;;28.70;47.30;;;27.42;34.15;99524.72;10276549;28;96622;-83
2022/08/17 19:57:11;;;;;;;3.17;2.10;;;28.40;48.00;;;27.30;34.18;99527.91;10267136;28;96901;-83
2022/08/17 20:02:36;;;;;;;3.35;2.70;;;28.30;47.90;;;27.26;34.93;99517.88;10279827;28;97633;-82
2022/08/17 20:07:55;;;;;;;5.60;2.60;;;28.20;48.20;;;27.12;35.54;99521.31;10274758;28;97319;-83
2022/08/17 20:13:10;;;;;;;3.17;2.43;;;28.20;48.60;;;26.94;35.92;99527.53;10270798;28;97636;-81
2022/08/17 20:18:35;;;;;;;3.78;2.38;;;28.10;49.00;;;26.76;36.99;99518.22;10259431;28;98168;-82
2022/08/17 20:24:28;;;;;;;5.68;2.80;;;28.00;49.50;;;26.54;37.56;99518.75;10271393;28;97914;-81
2022/08/17 20:29:53;;;;;;;5.15;2.70;;;27.80;50.00;;;26.32;37.82;99518.41;10229252;28;96858;-82
2022/08/17 20:35:25;;;;;;;4.07;2.53;;;27.50;50.80;;;26.01;39.46;99517.88;10267571;28;97083;-80
2022/08/17 20:40:32;;;;;;;5.03;2.70;;;27.30;51.30;;;25.81;38.90;99525.13;10267449;28;98366;-82
2022/08/17 20:46:01;;;;;;;3.92;3.08;;;27.10;51.50;;;25.57;39.40;99518.75;10262903;28;98887;-81
2022/08/17 20:51:27;;;;;;;3.60;2.80;;;26.80;51.80;;;25.28;40.68;99524.94;10255661;28;97522;-81
2022/08/17 20:56:42;;;;;;;7.93;5.38;;;26.50;52.40;;;25.09;40.89;99523.94;10273511;28;98615;-82
2022/08/17 21:02:08;;;;;;;6.20;4.50;;;26.30;52.80;;;24.90;41.28;99531.09;10277634;28;96597;-81
2022/08/17 21:07:33;;;;;;;5.65;3.83;;;26.10;53.30;;;24.70;41.65;99532.75;10276023;28;98394;-82
2022/08/17 21:13:06;;;;;;;5.40;3.45;;;25.90;53.90;;;24.50;42.39;99536.38;10261590;28;97763;-82
2022/08/17 21:18:37;;;;;;;5.35;3.80;;;25.60;54.30;;;24.33;42.40;99532.28;10276566;28;98705;-81
2022/08/17 21:24:03;;;;;;;12.45;7.82;;;25.50;54.50;;;24.26;42.43;99538.81;10280024;28;98301;-81
2022/08/17 21:29:25;;;;;;;4.68;3.50;;;25.40;54.40;;;24.18;42.99;99546.72;10263859;28;98740;-81
2022/08/17 21:34:36;;;;;;;4.80;3.22;;;25.30;54.70;;;24.06;42.63;99544.28;10281014;28;98090;-81
2022/08/17 21:39:40;;;;;;;4.60;3.03;;;25.10;54.90;;;23.93;43.43;99545.66;10282702;28;96661;-81
2022/08/17 21:44:49;;;;;;;2.95;2.65;;;25.00;55.40;;;23.82;43.42;99548.63;10246635;28;98503;-82
2022/08/17 21:49:54;;;;;;;5.13;2.93;;;24.90;55.60;;;23.70;43.91;99548.88;10240836;28;97361;-81
2022/08/17 21:55:01;;;;;;;4.63;2.88;;;24.80;56.00;;;23.58;43.94;99549.13;10261905;28;97614;-81
2022/08/17 22:00:16;;;;;;;3.55;2.83;;;24.70;56.20;;;23.45;44.86;99550.44;10276344;28;98555;-80
2022/08/17 22:05:38;;;;;;;3.17;2.47;;;24.60;56.70;;;23.33;45.29;99557.19;10242599;28;97973;-82
2022/08/17 22:10:44;;;;;;;3.33;2.58;;;24.40;56.90;;;23.21;45.19;99563.69;10266283;28;99236;-82
2022/08/17 22:16:03;;;;;;;4.43;2.88;;;24.30;57.20;;;23.14;45.74;99576.63;10268817;28;99126;-82
2022/08/17 22:21:18;;;;;;;4.60;2.70;;;24.20;57.50;;;23.09;45.15;99573.09;10260214;28;98618;-82
2022/08/17 22:26:51;;;;;;;4.85;2.67;;;24.20;57.50;;;23.07;45.34;99573.34;10267055;28;97871;-82
2022/08/17 22:31:56;;;;;;;4.30;2.58;;;24.10;57.60;;;23.05;45.36;99589.06;10275349;28;97359;-82